CheckWX is a tool to help pilots better visualize weather data.  It is not intended as a substitute for an official pre-flight weather briefing.

01:11:24 UTC

KLCG METAR
Wayne Municipal / Stan Morris Field Airport
Wayne, Nebraska, USA
Current

16 mins ago

KLCG 200055Z AUTO 12008KT 10SM SCT041 26/23 A2991 RMK AO2 T02600226
Observed
Aug-20 @ 00:55 UTC
Wind
  • 120° at 8 KTS
Visibility
10 SM
Flight Rules
VFR
Cloud Levels
  • Scattered at 4,100' AGL
Temperature
26°C / 79°F
Dewpoint
23°C / 73°F
Humidity
84%
Altimeter
29.91" Hg
Pressure
1012.92 hPa
Previous

36 mins ago

KLCG 200035Z AUTO 12007KT 10SM SCT029 26/23 A2991 RMK AO2 T02620227
Observed
Aug-20 @ 00:35 UTC
Wind
  • 120° at 7 KTS
Visibility
10 SM
Flight Rules
VFR
Cloud Levels
  • Scattered at 2,900' AGL
Temperature
26°C / 79°F
Dewpoint
23°C / 73°F
Humidity
84%
Altimeter
29.91" Hg
Pressure
1012.92 hPa
Previous

1 hour ago

KLCG 192355Z AUTO 14008KT 10SM SCT027 27/23 A2991 RMK AO2 T02680227 10290 20266
Observed
Aug-19 @ 23:55 UTC
Wind
  • 140° at 8 KTS
Visibility
10 SM
Flight Rules
VFR
Cloud Levels
  • Scattered at 2,700' AGL
Temperature
27°C / 81°F
Dewpoint
23°C / 73°F
Heat Index
30°C / 86°F
Humidity
79%
Altimeter
29.91" Hg
Pressure
1012.92 hPa